createdAt,value
2022-10-22T00:02:56.911Z,15.02
2022-10-22T00:05:59.729Z,12.68
2022-10-22T00:09:02.448Z,13.07
2022-10-22T00:12:05.446Z,14.73
2022-10-22T00:15:08.536Z,13.77
2022-10-22T00:18:11.100Z,15.20
2022-10-22T00:21:13.696Z,14.85
2022-10-22T00:24:16.980Z,14.52
2022-10-22T00:27:22.700Z,14.45
2022-10-22T00:30:25.235Z,13.33
2022-10-22T00:33:28.871Z,13.85
2022-10-22T00:36:31.447Z,14.80
2022-10-22T00:39:33.979Z,13.32
2022-10-22T00:42:36.602Z,13.38
2022-10-22T00:45:39.391Z,12.53
2022-10-22T00:48:44.804Z,15.48
2022-10-22T00:51:47.394Z,14.45
2022-10-22T00:54:53.400Z,13.50
2022-10-22T00:57:57.223Z,15.47
2022-10-22T01:00:59.935Z,13.83
2022-10-22T01:04:02.571Z,13.88
2022-10-22T01:07:05.293Z,15.18
2022-10-22T01:10:21.490Z,15.80
2022-10-22T01:13:40.131Z,17.77
2022-10-22T01:16:54.942Z,14.43
2022-10-22T01:20:13.562Z,14.23
2022-10-22T01:23:21.402Z,13.77
2022-10-22T01:26:26.953Z,14.38
2022-10-22T01:29:52.416Z,20.23
2022-10-22T01:32:59.301Z,14.53
2022-10-22T01:36:02.926Z,15.60
2022-10-22T01:39:05.997Z,14.77
2022-10-22T01:42:08.552Z,15.40
2022-10-22T01:45:13.242Z,21.50
2022-10-22T01:48:45.680Z,16.47
2022-10-22T01:52:06.947Z,14.43
2022-10-22T01:55:12.560Z,15.73
2022-10-22T01:58:36.887Z,16.83
2022-10-22T02:01:50.386Z,15.67
2022-10-22T02:04:58.008Z,16.73
2022-10-22T02:08:04.974Z,17.77
2022-10-22T02:11:09.364Z,17.33
2022-10-22T02:14:12.806Z,15.63
2022-10-22T02:17:20.587Z,17.00
2022-10-22T02:20:28.822Z,17.83
2022-10-22T02:23:31.310Z,17.98
2022-10-22T02:27:06.304Z,17.25
2022-10-22T02:30:11.757Z,16.10
2022-10-22T02:33:23.378Z,17.47
2022-10-22T02:36:29.437Z,14.43
2022-10-22T02:39:32.771Z,14.82
2022-10-22T02:42:35.625Z,15.65
2022-10-22T02:45:38.348Z,15.57
2022-10-22T02:48:41.075Z,14.13
2022-10-22T02:51:43.699Z,17.40
2022-10-22T02:54:46.286Z,16.25
2022-10-22T02:57:48.908Z,27.13
2022-10-22T03:00:51.615Z,27.75
2022-10-22T03:03:54.388Z,19.77
2022-10-22T03:06:57.016Z,18.77
2022-10-22T03:10:02.878Z,23.30
2022-10-22T03:13:05.408Z,21.10
2022-10-22T03:16:10.550Z,22.23
2022-10-22T03:19:13.098Z,20.03
2022-10-22T03:22:25.578Z,20.03
2022-10-22T03:25:34.729Z,21.58
2022-10-22T03:28:37.839Z,21.23
2022-10-22T03:31:40.441Z,18.40
2022-10-22T03:34:43.060Z,21.50
2022-10-22T03:37:45.843Z,22.67
2022-10-22T03:40:48.902Z,23.87
2022-10-22T03:43:53.291Z,18.15
2022-10-22T03:46:58.711Z,22.97
2022-10-22T03:50:06.024Z,19.30
2022-10-22T03:53:10.745Z,19.05
2022-10-22T03:56:13.990Z,18.83
2022-10-22T03:59:16.604Z,20.25
2022-10-22T04:02:19.191Z,20.50
2022-10-22T04:05:21.761Z,19.87
2022-10-22T04:08:24.268Z,20.50
2022-10-22T04:11:27.259Z,17.17
2022-10-22T04:14:29.839Z,21.10
2022-10-22T04:17:36.657Z,20.60
2022-10-22T04:20:39.294Z,22.47
2022-10-22T04:23:47.124Z,19.05
2022-10-22T04:26:51.211Z,28.00
2022-10-22T04:29:53.814Z,22.90
2022-10-22T04:32:56.330Z,19.07
2022-10-22T04:35:58.973Z,21.87
2022-10-22T04:39:02.322Z,19.10
2022-10-22T04:42:05.192Z,22.95
2022-10-22T04:45:08.275Z,26.52
2022-10-22T04:48:11.160Z,24.27
2022-10-22T04:51:19.027Z,21.23
2022-10-22T04:54:21.687Z,23.75
2022-10-22T04:57:24.251Z,21.33
2022-10-22T05:00:26.917Z,20.70
2022-10-22T05:03:29.441Z,20.30
2022-10-22T05:06:33.136Z,20.47
2022-10-22T05:09:35.661Z,22.25
2022-10-22T05:12:41.506Z,18.95
2022-10-22T05:15:44.028Z,20.08
2022-10-22T05:18:46.722Z,20.77
2022-10-22T05:21:49.396Z,20.97
2022-10-22T05:24:58.838Z,23.40
2022-10-22T05:28:05.166Z,22.13
2022-10-22T05:31:12.608Z,21.50
2022-10-22T05:34:15.895Z,22.47
2022-10-22T05:37:18.473Z,25.93
2022-10-22T05:40:30.385Z,23.48
2022-10-22T05:43:34.523Z,22.50
2022-10-22T05:46:37.088Z,24.40
2022-10-22T05:49:43.035Z,22.27
2022-10-22T05:52:45.619Z,25.50
2022-10-22T05:55:51.125Z,24.42
2022-10-22T05:58:54.170Z,22.98
2022-10-22T06:01:56.873Z,25.05
2022-10-22T06:05:00.361Z,83.33
2022-10-22T06:08:03.436Z,40.23
2022-10-22T06:11:09.085Z,31.42
2022-10-22T06:14:13.513Z,34.40
2022-10-22T06:17:16.183Z,32.85
2022-10-22T06:20:18.935Z,29.83
2022-10-22T06:23:22.984Z,29.83
2022-10-22T06:26:26.180Z,29.95
2022-10-22T06:29:28.822Z,31.23
2022-10-22T06:32:31.645Z,33.47
2022-10-22T06:35:34.420Z,28.53
2022-10-22T06:38:37.145Z,30.50
2022-10-22T06:41:42.796Z,27.40
2022-10-22T06:44:45.859Z,25.90
2022-10-22T06:47:49.221Z,29.67
2022-10-22T06:50:51.912Z,29.87
2022-10-22T06:53:56.255Z,34.53
2022-10-22T06:56:59.057Z,31.20
2022-10-22T07:00:07.597Z,27.27
2022-10-22T07:03:14.164Z,29.98
2022-10-22T07:06:17.073Z,27.60
2022-10-22T07:09:22.945Z,29.10
2022-10-22T07:12:26.362Z,26.50
2022-10-22T07:15:29.029Z,29.92
2022-10-22T07:18:32.316Z,24.33
2022-10-22T07:21:35.387Z,26.97
2022-10-22T07:24:38.029Z,27.30
2022-10-22T07:27:41.118Z,25.40
2022-10-22T07:30:43.920Z,25.73
2022-10-22T07:33:47.033Z,26.90
2022-10-22T07:36:49.691Z,27.02
2022-10-22T07:39:52.658Z,23.77
2022-10-22T07:42:55.509Z,26.12
2022-10-22T07:45:59.789Z,21.80
2022-10-22T07:49:02.452Z,22.45
2022-10-22T07:52:05.349Z,24.77
2022-10-22T07:55:08.474Z,24.23
2022-10-22T07:58:12.039Z,23.60
2022-10-22T08:01:15.045Z,22.37
2022-10-22T08:04:17.692Z,27.23
2022-10-22T08:07:20.591Z,21.58
2022-10-22T08:10:23.734Z,27.20
2022-10-22T08:13:27.641Z,24.45
2022-10-22T08:16:30.584Z,25.27
2022-10-22T08:19:33.563Z,28.55
2022-10-22T08:22:36.479Z,27.27
2022-10-22T08:25:39.549Z,26.63
2022-10-22T08:28:42.570Z,31.92
2022-10-22T08:31:45.481Z,27.00
2022-10-22T08:34:48.223Z,26.77
2022-10-22T08:37:51.166Z,25.60
2022-10-22T08:41:04.283Z,27.20
2022-10-22T08:44:24.941Z,23.87
2022-10-22T08:48:07.309Z,27.25
2022-10-22T08:51:20.251Z,25.52
2022-10-22T08:54:46.016Z,23.55
2022-10-22T08:57:55.867Z,24.20
2022-10-22T09:01:40.489Z,23.38
2022-10-22T09:04:49.563Z,21.58
2022-10-22T09:07:53.323Z,25.00
2022-10-22T09:11:19.468Z,23.92
2022-10-22T09:14:23.970Z,23.10
2022-10-22T09:17:35.854Z,21.33
2022-10-22T09:20:38.692Z,20.77
2022-10-22T09:24:00.662Z,24.87
2022-10-22T09:27:20.348Z,21.40
2022-10-22T09:30:31.223Z,20.47
2022-10-22T09:33:34.202Z,23.75
2022-10-22T09:36:38.344Z,28.62
2022-10-22T09:39:44.680Z,26.20
2022-10-22T09:42:47.425Z,22.23
2022-10-22T09:45:58.289Z,24.07
2022-10-22T09:49:02.217Z,22.48
2022-10-22T09:52:26.931Z,22.62
2022-10-22T09:55:29.729Z,21.23
2022-10-22T09:58:43.044Z,21.52
2022-10-22T10:01:45.881Z,21.43
2022-10-22T10:04:51.502Z,20.88
2022-10-22T10:07:54.161Z,24.98
2022-10-22T10:11:29.292Z,25.75
2022-10-22T10:14:38.274Z,21.52
2022-10-22T10:17:46.761Z,20.47
2022-10-22T10:21:16.467Z,20.23
2022-10-22T10:24:44.095Z,19.20
2022-10-22T10:28:16.547Z,19.60
2022-10-22T10:31:50.344Z,19.92
2022-10-22T10:35:11.806Z,40.73
2022-10-22T10:38:25.955Z,19.15
2022-10-22T10:41:37.561Z,17.48
2022-10-22T10:45:01.702Z,22.37
2022-10-22T10:48:27.441Z,22.52
2022-10-22T10:51:52.015Z,20.20
2022-10-22T10:55:19.348Z,26.77
2022-10-22T10:58:39.152Z,22.20
2022-10-22T11:02:00.971Z,22.27
2022-10-22T11:05:30.783Z,22.10
2022-10-22T11:08:42.294Z,18.87
2022-10-22T11:11:52.583Z,19.00
2022-10-22T11:15:11.683Z,17.33
2022-10-22T11:18:37.434Z,18.87
2022-10-22T11:22:06.955Z,21.50
2022-10-22T11:25:12.815Z,17.93
2022-10-22T11:28:18.880Z,17.48
2022-10-22T11:31:25.028Z,18.90
2022-10-22T11:34:42.784Z,14.93
2022-10-22T11:37:46.000Z,17.90
2022-10-22T11:41:02.655Z,15.67
2022-10-22T11:44:09.912Z,17.83
2022-10-22T11:47:25.924Z,15.88
2022-10-22T11:50:47.703Z,21.40
2022-10-22T11:53:56.921Z,24.75
2022-10-22T11:57:15.315Z,21.17
2022-10-22T12:00:41.635Z,19.87
2022-10-22T12:04:12.684Z,16.98
2022-10-22T12:07:49.777Z,21.67
2022-10-22T12:11:02.045Z,16.90
2022-10-22T12:14:24.668Z,16.57
2022-10-22T12:17:28.539Z,18.95
2022-10-22T12:20:31.398Z,19.48
2022-10-22T12:23:35.761Z,15.27
2022-10-22T12:26:38.531Z,18.05
2022-10-22T12:29:41.988Z,22.90
2022-10-22T12:32:44.932Z,19.35
2022-10-22T12:35:49.298Z,17.27
2022-10-22T12:38:52.099Z,21.00
2022-10-22T12:41:55.142Z,22.37
2022-10-22T12:44:57.878Z,20.37
2022-10-22T12:48:07.023Z,20.27
2022-10-22T12:51:15.606Z,18.60
2022-10-22T12:54:29.977Z,19.50
2022-10-22T12:57:32.690Z,19.02
2022-10-22T13:00:35.981Z,20.77
2022-10-22T13:03:52.416Z,20.25
2022-10-22T13:07:18.481Z,20.52
2022-10-22T13:10:32.751Z,19.73
2022-10-22T13:13:45.971Z,23.12
2022-10-22T13:17:06.412Z,20.20
2022-10-22T13:20:20.175Z,23.25
2022-10-22T13:23:28.363Z,20.73
2022-10-22T13:26:34.699Z,21.90
2022-10-22T13:29:41.847Z,20.98
2022-10-22T13:32:50.524Z,21.53
2022-10-22T13:35:54.616Z,20.52
2022-10-22T13:38:57.741Z,23.05
2022-10-22T13:42:00.667Z,22.00
2022-10-22T13:45:03.344Z,22.25
2022-10-22T13:48:06.722Z,22.83
2022-10-22T13:51:31.499Z,22.92
2022-10-22T13:54:34.210Z,21.17
2022-10-22T13:57:36.978Z,23.77
2022-10-22T14:00:44.262Z,25.90
2022-10-22T14:03:47.758Z,25.83
2022-10-22T14:06:50.487Z,21.50
2022-10-22T14:09:53.094Z,25.35
2022-10-22T14:12:55.747Z,30.30
2022-10-22T14:15:58.333Z,23.38
2022-10-22T14:19:01.665Z,26.40
2022-10-22T14:22:05.328Z,28.17
2022-10-22T14:25:11.974Z,26.58
2022-10-22T14:28:15.147Z,30.45
2022-10-22T14:31:17.990Z,24.00
2022-10-22T14:34:20.751Z,27.07
2022-10-22T14:37:25.202Z,26.17
2022-10-22T14:40:27.846Z,26.25
2022-10-22T14:43:31.465Z,30.35
2022-10-22T14:46:37.232Z,26.87
2022-10-22T14:49:40.027Z,24.63
2022-10-22T14:52:43.894Z,28.33
2022-10-22T14:55:49.281Z,25.77
2022-10-22T14:58:53.678Z,30.27
2022-10-22T15:01:59.410Z,27.23
2022-10-22T15:05:02.027Z,25.67
2022-10-22T15:08:05.580Z,26.23
2022-10-22T15:11:11.393Z,26.60
2022-10-22T15:14:15.690Z,25.12
2022-10-22T15:17:19.389Z,26.02
2022-10-22T15:20:22.111Z,24.20
2022-10-22T15:23:25.687Z,25.83
2022-10-22T15:26:29.418Z,27.58
2022-10-22T15:29:33.332Z,23.05
2022-10-22T15:32:36.581Z,28.25
2022-10-22T15:35:39.312Z,28.00
2022-10-22T15:38:42.381Z,26.55
2022-10-22T15:41:47.244Z,28.30
2022-10-22T15:44:50.288Z,27.98
2022-10-22T15:47:53.023Z,27.45
2022-10-22T15:50:55.754Z,28.17
2022-10-22T15:53:59.560Z,31.25
2022-10-22T15:57:03.889Z,28.15
2022-10-22T16:00:07.731Z,30.17
2022-10-22T16:03:10.428Z,26.45
2022-10-22T16:06:13.174Z,30.97
2022-10-22T16:09:19.770Z,31.85
2022-10-22T16:12:23.165Z,33.75
2022-10-22T16:15:26.681Z,29.33
2022-10-22T16:18:29.950Z,30.98
2022-10-22T16:21:35.912Z,30.13
2022-10-22T16:24:41.390Z,26.75
2022-10-22T16:27:49.749Z,35.55
2022-10-22T16:30:56.530Z,29.87
2022-10-22T16:33:59.364Z,29.80
2022-10-22T16:37:02.800Z,30.47
2022-10-22T16:40:08.249Z,31.27
2022-10-22T16:43:11.383Z,30.08
2022-10-22T16:46:17.510Z,31.65
2022-10-22T16:49:20.659Z,28.98
2022-10-22T16:52:23.425Z,32.37
2022-10-22T16:55:27.152Z,30.75
2022-10-22T16:58:33.471Z,32.53
2022-10-22T17:01:40.888Z,31.42
2022-10-22T17:04:44.238Z,30.62
2022-10-22T17:07:47.223Z,33.23
2022-10-22T17:10:50.325Z,35.22
2022-10-22T17:13:54.642Z,37.13
2022-10-22T17:16:57.907Z,31.87
2022-10-22T17:20:01.047Z,32.67
2022-10-22T17:23:05.038Z,35.73
2022-10-22T17:26:09.898Z,37.88
2022-10-22T17:29:13.871Z,35.92
2022-10-22T17:32:16.860Z,33.80
2022-10-22T17:35:20.576Z,32.60
2022-10-22T17:38:23.603Z,36.80
2022-10-22T17:41:30.027Z,35.67
2022-10-22T17:44:33.027Z,32.40
2022-10-22T17:47:37.938Z,32.03
2022-10-22T17:50:48.218Z,40.33
2022-10-22T17:53:54.176Z,34.17
2022-10-22T17:56:57.741Z,33.55
2022-10-22T18:00:00.624Z,34.17
2022-10-22T18:03:03.661Z,30.50
2022-10-22T18:06:10.814Z,33.27
2022-10-22T18:09:18.435Z,33.97
2022-10-22T18:12:22.072Z,35.25
2022-10-22T18:15:26.251Z,31.65
2022-10-22T18:18:29.363Z,36.70
2022-10-22T18:21:34.083Z,31.62
2022-10-22T18:24:37.364Z,29.80
2022-10-22T18:27:40.793Z,34.80
2022-10-22T18:30:45.706Z,31.00
2022-10-22T18:33:49.117Z,32.00
2022-10-22T18:36:52.364Z,31.20
2022-10-22T18:39:55.342Z,35.97
2022-10-22T18:43:04.816Z,33.15
2022-10-22T18:46:08.536Z,38.15
2022-10-22T18:49:18.464Z,32.58
2022-10-22T18:52:21.677Z,35.92
2022-10-22T18:55:24.876Z,32.13
2022-10-22T18:58:29.166Z,34.88
2022-10-22T19:01:35.470Z,35.60
2022-10-22T19:04:38.531Z,34.45
2022-10-22T19:07:41.828Z,35.83
2022-10-22T19:10:46.875Z,36.10
2022-10-22T19:13:50.519Z,37.88
2022-10-22T19:16:53.595Z,39.83
2022-10-22T19:20:00.459Z,38.22
2022-10-22T19:23:04.957Z,34.87
2022-10-22T19:26:11.535Z,37.23
2022-10-22T19:29:16.878Z,40.47
2022-10-22T19:32:20.350Z,38.78
2022-10-22T19:35:23.540Z,41.40
2022-10-22T19:38:29.911Z,39.10
2022-10-22T19:41:33.285Z,38.47
2022-10-22T19:44:36.375Z,36.22
2022-10-22T19:47:39.257Z,38.60
2022-10-22T19:50:42.205Z,35.22
2022-10-22T19:53:47.791Z,37.90
2022-10-22T19:56:51.369Z,39.80
2022-10-22T19:59:54.525Z,36.53
2022-10-22T20:02:58.332Z,39.70
2022-10-22T20:06:01.117Z,43.58
2022-10-22T20:09:04.022Z,41.42
2022-10-22T20:12:06.888Z,40.63
2022-10-22T20:15:09.673Z,42.92
2022-10-22T20:18:12.329Z,40.03
2022-10-22T20:21:17.052Z,39.20
2022-10-22T20:24:20.049Z,41.42
2022-10-22T20:27:22.806Z,40.53
2022-10-22T20:30:25.914Z,39.85
2022-10-22T20:33:28.722Z,34.53
2022-10-22T20:36:32.828Z,42.03
2022-10-22T20:39:35.698Z,41.13
2022-10-22T20:42:42.209Z,40.10
2022-10-22T20:45:45.589Z,36.80
2022-10-22T20:48:52.200Z,37.70
2022-10-22T20:51:55.310Z,39.03
2022-10-22T20:54:58.148Z,41.33
2022-10-22T20:58:00.904Z,37.60
2022-10-22T21:01:10.243Z,44.53
2022-10-22T21:04:13.373Z,40.90
2022-10-22T21:07:15.989Z,41.08
2022-10-22T21:10:18.673Z,43.67
2022-10-22T21:13:21.294Z,43.67
2022-10-22T21:16:24.178Z,46.03
2022-10-22T21:19:27.208Z,43.42
2022-10-22T21:22:29.885Z,42.58
2022-10-22T21:25:32.600Z,41.03
2022-10-22T21:28:36.830Z,43.63
2022-10-22T21:31:40.655Z,40.83
2022-10-22T21:34:44.155Z,43.13
2022-10-22T21:37:46.975Z,43.58
2022-10-22T21:40:50.339Z,39.83
2022-10-22T21:43:53.128Z,40.33
2022-10-22T21:46:55.925Z,40.42
2022-10-22T21:49:58.496Z,37.70
2022-10-22T21:53:01.295Z,40.47
2022-10-22T21:56:04.764Z,35.22
2022-10-22T21:59:07.667Z,42.30
2022-10-22T22:02:11.234Z,37.55
2022-10-22T22:05:13.997Z,41.37
2022-10-22T22:08:17.169Z,38.10
2022-10-22T22:11:27.599Z,38.40
2022-10-22T22:14:31.032Z,39.93
2022-10-22T22:17:33.704Z,39.75
2022-10-22T22:20:39.420Z,42.55
2022-10-22T22:23:43.876Z,41.88
2022-10-22T22:26:46.561Z,47.33
2022-10-22T22:29:49.343Z,48.13
2022-10-22T22:32:51.888Z,48.28
2022-10-22T22:35:58.867Z,49.10
2022-10-22T22:39:01.480Z,56.35
2022-10-22T22:42:04.470Z,49.40
2022-10-22T22:45:07.485Z,66.80
2022-10-22T22:48:10.140Z,54.38
2022-10-22T22:51:16.030Z,55.45
2022-10-22T22:54:18.642Z,55.10
2022-10-22T22:57:21.429Z,63.60
2022-10-22T23:00:24.044Z,46.37
2022-10-22T23:03:26.654Z,54.85
2022-10-22T23:06:32.479Z,53.47
2022-10-22T23:09:35.496Z,61.88
2022-10-22T23:12:38.256Z,68.25
2022-10-22T23:15:40.876Z,61.00
2022-10-22T23:18:44.519Z,43.30
2022-10-22T23:21:52.432Z,44.75
2022-10-22T23:24:55.092Z,51.83
2022-10-22T23:27:57.872Z,49.55
2022-10-22T23:31:05.216Z,47.93
2022-10-22T23:34:08.309Z,51.85
2022-10-22T23:37:12.298Z,49.03
2022-10-22T23:40:15.029Z,49.25
2022-10-22T23:43:17.628Z,46.23
2022-10-22T23:46:20.364Z,44.10
2022-10-22T23:49:23.328Z,46.63
2022-10-22T23:52:26.185Z,39.88
2022-10-22T23:55:28.763Z,41.80
2022-10-22T23:58:31.607Z,37.72
